Weather History for KHFJ - September, 2012

Change the Weather History Date:

Wednesday, September 19, 2012

  Actual Average (KJLN) Record (KJLN)
Temperature  
Mean Temperature 64 °F 69 °F  
Max Temperature 77 °F 81 °F 98 °F (1954)
Min Temperature 51 °F 58 °F 38 °F (1991)
Degree Days  
Heating Degree Days 1 2  
Month to date heating degree days 9  
Since 1 July heating degree days 10  
Cooling Degree Days 0 6  
Month to date cooling degree days 165  
Year to date cooling degree days 1592  
Growing Degree Days 14 (Base 50)    
Moisture  
Dew Point 46 °F    
Average Humidity 55    
Maximum Humidity 71    
Minimum Humidity 34    
Precipitation  
Precipitation 0.00 in 0.17 in 1.39 in (1974)
Month to date precipitation 3.16  
Year to date precipitation 34.13  
Sea Level Pressure  
Sea Level Pressure 30.06 in    
Wind  
Wind Speed 8 mph (SSE)    
Max Wind Speed 18 mph    
Max Gust Speed 24 mph    
Visibility 10 miles    
Events      
T = Trace of Precipitation, MM = Missing Value Source: NWS Daily Summary

Daily Weather History Graph

Daily Weather History Graph

Search for Another Location

Airport or City:

Trip Planner

Search our weather history database for the weather conditions in past years. The results will help you decide how hot, cold, wet, or windy it might be!

Date:

Astronomy

Sep. 19, 2012 Rise Set
Actual Time 7:01 AM CDT 7:16 PM CDT
Civil Twilight 6:35 AM CDT 7:42 PM CDT
Nautical Twilight 6:05 AM CDT 8:12 PM CDT
Astronomical Twilight 5:34 AM CDT 8:43 PM CDT
Moon 11:05 AM CDT (9/19) 9:34 PM CDT (9/19)
Length of Visible Light 13h 06m
Length of Day
12h 14m
Waxing Crescent, 17% of the Moon is Illuminated
Sep 19
Waxing Crescent
Sep 22
First Quarter
Sep 29
Full
Oct 8
Last Quarter
Oct 15
New

Hourly Weather History & Observations

Time (CDT) Temp. Dew Point Humidity Pressure Visibility Wind Dir Wind Speed Gust Speed Precip Events Conditions
12:15 AM 51.8 °F 42.8 °F 71% 30.09 in 10.0 mi SE 5.8 mph - N/A   Clear
12:35 AM 53.6 °F 42.8 °F 67% 30.08 in 10.0 mi SE 6.9 mph - N/A   Clear
12:55 AM 53.6 °F 42.8 °F 67% 30.08 in 10.0 mi ESE 5.8 mph - N/A   Clear
1:15 AM 51.8 °F 42.8 °F 71% 30.08 in 10.0 mi SE 4.6 mph - N/A   Clear
1:35 AM 51.8 °F 42.8 °F 71% 30.08 in 10.0 mi SE 4.6 mph - N/A   Clear
1:55 AM 51.8 °F 42.8 °F 71% 30.08 in 10.0 mi SE 5.8 mph - N/A   Clear
2:15 AM 51.8 °F 42.8 °F 71% 30.08 in 10.0 mi SE 5.8 mph - N/A   Clear
2:35 AM 51.8 °F 42.8 °F 71% 30.08 in 10.0 mi SE 4.6 mph - N/A   Scattered Clouds
2:55 AM 51.8 °F 42.8 °F 71% 30.08 in 10.0 mi ESE 5.8 mph - N/A   Scattered Clouds
3:15 AM 51.8 °F 42.8 °F 71% 30.08 in 10.0 mi SE 5.8 mph - N/A   Clear
3:35 AM 51.8 °F 42.8 °F 71% 30.07 in 10.0 mi ESE 6.9 mph - N/A   Clear
3:55 AM 51.8 °F 42.8 °F 71% 30.07 in 10.0 mi ESE 6.9 mph - N/A   Clear
4:15 AM 51.8 °F 42.8 °F 71% 30.07 in 10.0 mi SE 5.8 mph - N/A   Clear
4:55 AM 51.8 °F 42.8 °F 71% 30.08 in 10.0 mi ESE 5.8 mph - N/A   Clear
5:15 AM 51.8 °F 42.8 °F 71% 30.08 in 10.0 mi SE 6.9 mph - N/A   Clear
5:35 AM 51.8 °F 42.8 °F 71% 30.08 in 10.0 mi ESE 8.1 mph - N/A   Clear
5:55 AM 51.8 °F 42.8 °F 71% 30.09 in 10.0 mi ESE 9.2 mph - N/A   Clear
6:15 AM 51.8 °F 42.8 °F 71% 30.09 in 10.0 mi SE 8.1 mph - N/A   Clear
6:35 AM 51.8 °F 42.8 °F 71% 30.10 in 10.0 mi SE 6.9 mph - N/A   Clear
6:55 AM 51.8 °F 42.8 °F 71% 30.10 in 10.0 mi SSE 6.9 mph - N/A   Clear
7:15 AM 51.8 °F 42.8 °F 71% 30.11 in 10.0 mi SE 5.8 mph - N/A   Clear
7:35 AM 51.8 °F 42.8 °F 71% 30.11 in 10.0 mi SSE 8.1 mph - N/A   Clear
7:55 AM 53.6 °F 42.8 °F 67% 30.12 in 10.0 mi South 3.5 mph - N/A   Clear
8:15 AM 55.4 °F 44.6 °F 67% 30.12 in 10.0 mi SSE 4.6 mph - N/A   Clear
8:35 AM 57.2 °F 44.6 °F 63% 30.12 in 10.0 mi SSE 6.9 mph - N/A   Clear
8:55 AM 59.0 °F 44.6 °F 59% 30.12 in 10.0 mi SSE 6.9 mph - N/A   Clear
9:15 AM 60.8 °F 46.4 °F 59% 30.13 in 10.0 mi South 10.4 mph - N/A   Clear
9:35 AM 62.6 °F 46.4 °F 55% 30.13 in 10.0 mi South 11.5 mph - N/A   Clear
9:55 AM 64.4 °F 46.4 °F 52% 30.13 in 10.0 mi South 13.8 mph - N/A   Clear
10:35 AM 66.2 °F 46.4 °F 49% 30.12 in 10.0 mi South 12.7 mph - N/A   Clear
10:55 AM 68.0 °F 46.4 °F 46% 30.12 in 10.0 mi SSW 11.5 mph - N/A   Clear
11:15 AM 69.8 °F 46.4 °F 43% 30.12 in 10.0 mi South 15.0 mph 18.4 mph N/A   Clear
11:35 AM 69.8 °F 46.4 °F 43% 30.12 in 10.0 mi South 15.0 mph 20.7 mph N/A   Clear
11:55 AM 69.8 °F 46.4 °F 43% 30.11 in 10.0 mi South 12.7 mph - N/A   Clear
12:15 PM 71.6 °F 48.2 °F 43% 30.10 in 10.0 mi SSW 12.7 mph - N/A   Clear
12:35 PM 71.6 °F 46.4 °F 41% 30.10 in 10.0 mi SSW 18.4 mph - N/A   Clear
12:55 PM 73.4 °F 48.2 °F 41% 30.09 in 10.0 mi SSW 13.8 mph - N/A   Clear
1:15 PM 73.4 °F 46.4 °F 38% 30.08 in 10.0 mi South 12.7 mph 19.6 mph N/A   Clear
1:35 PM 73.4 °F 46.4 °F 38% 30.07 in 10.0 mi South 16.1 mph 21.9 mph N/A   Clear
1:55 PM 73.4 °F 46.4 °F 38% 30.06 in 10.0 mi SSW 16.1 mph 20.7 mph N/A   Clear
2:15 PM 75.2 °F 46.4 °F 36% 30.05 in 10.0 mi SSW 11.5 mph 19.6 mph N/A   Clear
2:35 PM 75.2 °F 46.4 °F 36% 30.05 in 10.0 mi SSW 15.0 mph 21.9 mph N/A   Clear
3:15 PM 77.0 °F 46.4 °F 34% 30.03 in 10.0 mi SSW 16.1 mph 19.6 mph N/A   Clear
3:35 PM 77.0 °F 46.4 °F 34% 30.03 in 10.0 mi SW 17.3 mph 24.2 mph N/A   Clear
3:55 PM 77.0 °F 46.4 °F 34% 30.02 in 10.0 mi SSW 17.3 mph - N/A   Clear
4:15 PM 77.0 °F 48.2 °F 36% 30.02 in 10.0 mi South 12.7 mph 18.4 mph N/A   Clear
4:35 PM 77.0 °F 48.2 °F 36% 30.01 in 10.0 mi South 11.5 mph 18.4 mph N/A   Clear
4:55 PM 77.0 °F 46.4 °F 34% 30.00 in 10.0 mi South 15.0 mph - N/A   Clear
5:15 PM 75.2 °F 46.4 °F 36% 30.00 in 10.0 mi South 12.7 mph 18.4 mph N/A   Clear
5:35 PM 75.2 °F 48.2 °F 38% 30.00 in 10.0 mi SSW 13.8 mph 18.4 mph N/A   Clear
5:55 PM 73.4 °F 48.2 °F 41% 30.00 in 10.0 mi SSW 11.5 mph 17.3 mph N/A   Clear
6:15 PM 73.4 °F 48.2 °F 41% 30.00 in 10.0 mi South 10.4 mph - N/A   Clear
6:35 PM 71.6 °F 50.0 °F 46% 30.00 in 10.0 mi South 11.5 mph - N/A   Clear
6:55 PM 69.8 °F 50.0 °F 49% 30.00 in 10.0 mi South 8.1 mph - N/A   Clear
7:15 PM 69.8 °F 50.0 °F 49% 30.00 in 10.0 mi South 6.9 mph - N/A   Clear
7:35 PM 68.0 °F 50.0 °F 52% 30.00 in 10.0 mi South 8.1 mph - N/A   Clear
7:55 PM 68.0 °F 50.0 °F 52% 30.00 in 10.0 mi South 5.8 mph - N/A   Clear
8:15 PM 64.4 °F 50.0 °F 59% 30.00 in 10.0 mi South 5.8 mph - N/A   Clear
8:35 PM 64.4 °F 50.0 °F 59% 30.00 in 10.0 mi South 9.2 mph - N/A   Clear
8:55 PM 64.4 °F 50.0 °F 59% 30.00 in 10.0 mi South 9.2 mph - N/A   Clear
9:15 PM 64.4 °F 50.0 °F 59% 30.00 in 10.0 mi South 8.1 mph - N/A   Clear
9:35 PM 64.4 °F 50.0 °F 59% 30.00 in 10.0 mi South 9.2 mph - N/A   Clear
9:55 PM 62.6 °F 50.0 °F 63% 30.00 in 10.0 mi South 9.2 mph - N/A   Clear
10:15 PM 62.6 °F 48.2 °F 59% 30.00 in 10.0 mi South 10.4 mph - N/A   Clear
10:35 PM 62.6 °F 48.2 °F 59% 30.00 in 10.0 mi South 10.4 mph - N/A   Clear
10:55 PM 64.4 °F 48.2 °F 56% 30.00 in 10.0 mi South 11.5 mph 16.1 mph N/A   Clear
11:35 PM 64.4 °F 48.2 °F 56% 30.00 in 10.0 mi South 12.7 mph 16.1 mph N/A   Clear
11:55 PM 64.4 °F 48.2 °F 56% 29.99 in 10.0 mi South 12.7 mph - N/A   Clear